sensor_id;sensor_type;location;lat;lon;timestamp;P1;durP1;ratioP1;P2;durP2;ratioP2
32824;SDS011;51060;42.640;24.356;2024-01-30T00:02:10;60.00;;;27.30;;
32824;SDS011;51060;42.640;24.356;2024-01-30T00:04:36;45.60;;;22.67;;
32824;SDS011;51060;42.640;24.356;2024-01-30T00:07:02;42.73;;;19.07;;
32824;SDS011;51060;42.640;24.356;2024-01-30T00:09:28;43.03;;;19.63;;
32824;SDS011;51060;42.640;24.356;2024-01-30T00:11:54;34.20;;;17.00;;
32824;SDS011;51060;42.640;24.356;2024-01-30T00:14:22;26.00;;;11.87;;
32824;SDS011;51060;42.640;24.356;2024-01-30T00:16:48;21.10;;;10.40;;
32824;SDS011;51060;42.640;24.356;2024-01-30T00:19:14;19.27;;;9.97;;
32824;SDS011;51060;42.640;24.356;2024-01-30T00:21:40;49.50;;;19.43;;
32824;SDS011;51060;42.640;24.356;2024-01-30T00:24:06;54.70;;;22.37;;
32824;SDS011;51060;42.640;24.356;2024-01-30T00:26:34;49.47;;;23.77;;
32824;SDS011;51060;42.640;24.356;2024-01-30T00:29:00;40.00;;;17.93;;
32824;SDS011;51060;42.640;24.356;2024-01-30T00:31:26;31.00;;;15.60;;
32824;SDS011;51060;42.640;24.356;2024-01-30T00:33:52;38.67;;;17.43;;
32824;SDS011;51060;42.640;24.356;2024-01-30T00:36:21;28.07;;;15.53;;
32824;SDS011;51060;42.640;24.356;2024-01-30T00:38:46;25.67;;;13.20;;
32824;SDS011;51060;42.640;24.356;2024-01-30T00:41:12;24.87;;;12.67;;
32824;SDS011;51060;42.640;24.356;2024-01-30T00:43:38;26.13;;;13.97;;
32824;SDS011;51060;42.640;24.356;2024-01-30T00:46:04;25.37;;;12.47;;
32824;SDS011;51060;42.640;24.356;2024-01-30T00:48:30;27.50;;;15.50;;
32824;SDS011;51060;42.640;24.356;2024-01-30T00:50:55;37.30;;;19.63;;
32824;SDS011;51060;42.640;24.356;2024-01-30T00:53:21;29.13;;;15.10;;
32824;SDS011;51060;42.640;24.356;2024-01-30T00:55:49;15.23;;;8.73;;
32824;SDS011;51060;42.640;24.356;2024-01-30T00:58:18;27.77;;;16.30;;
32824;SDS011;51060;42.640;24.356;2024-01-30T01:00:44;33.97;;;19.40;;
32824;SDS011;51060;42.640;24.356;2024-01-30T01:03:10;35.37;;;19.97;;
32824;SDS011;51060;42.640;24.356;2024-01-30T01:05:39;43.87;;;22.73;;
32824;SDS011;51060;42.640;24.356;2024-01-30T01:08:05;41.03;;;21.87;;
32824;SDS011;51060;42.640;24.356;2024-01-30T01:10:30;34.10;;;17.83;;
32824;SDS011;51060;42.640;24.356;2024-01-30T01:12:56;30.30;;;15.87;;
32824;SDS011;51060;42.640;24.356;2024-01-30T01:15:21;28.33;;;13.53;;
32824;SDS011;51060;42.640;24.356;2024-01-30T01:17:47;21.03;;;12.10;;
32824;SDS011;51060;42.640;24.356;2024-01-30T01:20:14;17.13;;;9.53;;
32824;SDS011;51060;42.640;24.356;2024-01-30T01:22:40;19.73;;;11.63;;
32824;SDS011;51060;42.640;24.356;2024-01-30T01:25:08;23.30;;;13.13;;
32824;SDS011;51060;42.640;24.356;2024-01-30T01:27:35;29.63;;;14.47;;
32824;SDS011;51060;42.640;24.356;2024-01-30T01:30:07;22.63;;;12.27;;
32824;SDS011;51060;42.640;24.356;2024-01-30T01:32:34;24.13;;;11.83;;
32824;SDS011;51060;42.640;24.356;2024-01-30T01:35:00;15.87;;;8.80;;
32824;SDS011;51060;42.640;24.356;2024-01-30T01:37:26;16.97;;;9.07;;
32824;SDS011;51060;42.640;24.356;2024-01-30T01:39:52;18.23;;;9.77;;
32824;SDS011;51060;42.640;24.356;2024-01-30T01:42:20;50.70;;;22.33;;
32824;SDS011;51060;42.640;24.356;2024-01-30T01:44:47;16.90;;;9.37;;
32824;SDS011;51060;42.640;24.356;2024-01-30T01:47:13;19.93;;;12.37;;
32824;SDS011;51060;42.640;24.356;2024-01-30T01:49:39;14.63;;;9.17;;
32824;SDS011;51060;42.640;24.356;2024-01-30T01:52:05;15.97;;;9.03;;
32824;SDS011;51060;42.640;24.356;2024-01-30T01:54:31;41.53;;;22.07;;
32824;SDS011;51060;42.640;24.356;2024-01-30T01:56:57;43.80;;;21.97;;
32824;SDS011;51060;42.640;24.356;2024-01-30T01:59:23;25.70;;;14.03;;
32824;SDS011;51060;42.640;24.356;2024-01-30T02:01:49;26.23;;;12.53;;
32824;SDS011;51060;42.640;24.356;2024-01-30T02:04:15;19.43;;;11.23;;
32824;SDS011;51060;42.640;24.356;2024-01-30T02:06:41;18.87;;;10.07;;
32824;SDS011;51060;42.640;24.356;2024-01-30T02:09:08;17.97;;;10.43;;
32824;SDS011;51060;42.640;24.356;2024-01-30T02:11:34;10.50;;;6.10;;
32824;SDS011;51060;42.640;24.356;2024-01-30T02:14:03;10.07;;;6.40;;
32824;SDS011;51060;42.640;24.356;2024-01-30T02:16:29;23.40;;;11.63;;
32824;SDS011;51060;42.640;24.356;2024-01-30T02:18:55;20.53;;;11.97;;
32824;SDS011;51060;42.640;24.356;2024-01-30T02:21:23;22.27;;;11.80;;
32824;SDS011;51060;42.640;24.356;2024-01-30T02:23:49;15.90;;;8.77;;
32824;SDS011;51060;42.640;24.356;2024-01-30T02:26:16;21.93;;;11.20;;
32824;SDS011;51060;42.640;24.356;2024-01-30T02:28:41;16.87;;;8.20;;
32824;SDS011;51060;42.640;24.356;2024-01-30T02:31:07;11.33;;;5.60;;
32824;SDS011;51060;42.640;24.356;2024-01-30T02:33:33;12.80;;;5.77;;
32824;SDS011;51060;42.640;24.356;2024-01-30T02:35:59;6.80;;;3.77;;
32824;SDS011;51060;42.640;24.356;2024-01-30T02:38:24;11.27;;;6.57;;
32824;SDS011;51060;42.640;24.356;2024-01-30T02:40:52;9.50;;;5.70;;
32824;SDS011;51060;42.640;24.356;2024-01-30T02:43:18;3.40;;;2.57;;
32824;SDS011;51060;42.640;24.356;2024-01-30T02:45:43;17.83;;;9.50;;
32824;SDS011;51060;42.640;24.356;2024-01-30T02:48:09;26.97;;;12.97;;
32824;SDS011;51060;42.640;24.356;2024-01-30T02:50:34;29.47;;;14.43;;
32824;SDS011;51060;42.640;24.356;2024-01-30T02:53:00;27.23;;;13.40;;
32824;SDS011;51060;42.640;24.356;2024-01-30T02:55:28;11.43;;;7.17;;
32824;SDS011;51060;42.640;24.356;2024-01-30T02:57:54;14.67;;;8.03;;
32824;SDS011;51060;42.640;24.356;2024-01-30T03:00:19;11.60;;;6.67;;
32824;SDS011;51060;42.640;24.356;2024-01-30T03:02:45;14.27;;;6.97;;
32824;SDS011;51060;42.640;24.356;2024-01-30T03:05:11;5.40;;;3.90;;
32824;SDS011;51060;42.640;24.356;2024-01-30T03:07:40;8.23;;;5.00;;
32824;SDS011;51060;42.640;24.356;2024-01-30T03:10:08;12.27;;;8.50;;
32824;SDS011;51060;42.640;24.356;2024-01-30T03:12:33;3.97;;;2.90;;
32824;SDS011;51060;42.640;24.356;2024-01-30T03:14:59;4.10;;;2.63;;
32824;SDS011;51060;42.640;24.356;2024-01-30T03:17:25;14.93;;;9.17;;
32824;SDS011;51060;42.640;24.356;2024-01-30T03:19:50;9.10;;;6.03;;
32824;SDS011;51060;42.640;24.356;2024-01-30T03:22:19;7.97;;;4.90;;
32824;SDS011;51060;42.640;24.356;2024-01-30T03:24:45;6.90;;;4.87;;
32824;SDS011;51060;42.640;24.356;2024-01-30T03:27:10;5.13;;;3.83;;
32824;SDS011;51060;42.640;24.356;2024-01-30T03:29:36;3.40;;;2.80;;
32824;SDS011;51060;42.640;24.356;2024-01-30T03:32:02;3.57;;;2.63;;
32824;SDS011;51060;42.640;24.356;2024-01-30T03:34:29;8.10;;;5.33;;
32824;SDS011;51060;42.640;24.356;2024-01-30T03:36:58;7.53;;;5.40;;
32824;SDS011;51060;42.640;24.356;2024-01-30T03:39:23;6.50;;;4.70;;
32824;SDS011;51060;42.640;24.356;2024-01-30T03:41:49;6.10;;;5.00;;
32824;SDS011;51060;42.640;24.356;2024-01-30T03:44:18;6.27;;;3.57;;
32824;SDS011;51060;42.640;24.356;2024-01-30T03:46:46;4.60;;;3.50;;
32824;SDS011;51060;42.640;24.356;2024-01-30T03:49:12;7.63;;;4.53;;
32824;SDS011;51060;42.640;24.356;2024-01-30T03:51:38;4.97;;;3.27;;
32824;SDS011;51060;42.640;24.356;2024-01-30T03:54:04;4.03;;;2.90;;
32824;SDS011;51060;42.640;24.356;2024-01-30T03:56:30;6.03;;;3.40;;
32824;SDS011;51060;42.640;24.356;2024-01-30T03:58:55;5.00;;;3.10;;
32824;SDS011;51060;42.640;24.356;2024-01-30T04:01:22;5.33;;;3.57;;
32824;SDS011;51060;42.640;24.356;2024-01-30T04:03:47;6.63;;;4.93;;
32824;SDS011;51060;42.640;24.356;2024-01-30T04:06:16;7.40;;;3.90;;
32824;SDS011;51060;42.640;24.356;2024-01-30T04:08:41;7.17;;;4.73;;
32824;SDS011;51060;42.640;24.356;2024-01-30T04:11:07;15.90;;;9.67;;
32824;SDS011;51060;42.640;24.356;2024-01-30T04:13:33;19.73;;;12.53;;
32824;SDS011;51060;42.640;24.356;2024-01-30T04:16:02;6.33;;;4.77;;
32824;SDS011;51060;42.640;24.356;2024-01-30T04:18:28;6.07;;;3.90;;
32824;SDS011;51060;42.640;24.356;2024-01-30T04:20:54;8.17;;;4.70;;
32824;SDS011;51060;42.640;24.356;2024-01-30T04:23:20;14.27;;;7.40;;
32824;SDS011;51060;42.640;24.356;2024-01-30T04:25:45;11.30;;;6.80;;
32824;SDS011;51060;42.640;24.356;2024-01-30T04:28:11;12.57;;;10.93;;
32824;SDS011;51060;42.640;24.356;2024-01-30T04:30:37;7.13;;;4.37;;
32824;SDS011;51060;42.640;24.356;2024-01-30T04:33:03;5.90;;;4.40;;
32824;SDS011;51060;42.640;24.356;2024-01-30T04:35:29;4.07;;;3.20;;
32824;SDS011;51060;42.640;24.356;2024-01-30T04:37:55;5.13;;;4.00;;
32824;SDS011;51060;42.640;24.356;2024-01-30T04:40:20;6.57;;;5.40;;
32824;SDS011;51060;42.640;24.356;2024-01-30T04:42:46;5.50;;;4.27;;
32824;SDS011;51060;42.640;24.356;2024-01-30T04:45:12;5.23;;;4.30;;
32824;SDS011;51060;42.640;24.356;2024-01-30T04:47:37;7.23;;;4.60;;
32824;SDS011;51060;42.640;24.356;2024-01-30T04:50:05;34.93;;;28.10;;
32824;SDS011;51060;42.640;24.356;2024-01-30T04:52:32;10.13;;;5.83;;
32824;SDS011;51060;42.640;24.356;2024-01-30T04:54:57;4.73;;;3.73;;
32824;SDS011;51060;42.640;24.356;2024-01-30T04:57:23;8.60;;;5.30;;
32824;SDS011;51060;42.640;24.356;2024-01-30T04:59:49;8.37;;;5.27;;
32824;SDS011;51060;42.640;24.356;2024-01-30T05:02:14;9.10;;;6.73;;
32824;SDS011;51060;42.640;24.356;2024-01-30T05:04:40;6.00;;;4.77;;
32824;SDS011;51060;42.640;24.356;2024-01-30T05:07:06;4.93;;;3.47;;
32824;SDS011;51060;42.640;24.356;2024-01-30T05:09:32;4.93;;;4.07;;
32824;SDS011;51060;42.640;24.356;2024-01-30T05:11:58;15.03;;;10.13;;
32824;SDS011;51060;42.640;24.356;2024-01-30T05:14:23;13.50;;;8.60;;
32824;SDS011;51060;42.640;24.356;2024-01-30T05:16:49;48.37;;;28.93;;
32824;SDS011;51060;42.640;24.356;2024-01-30T05:19:15;14.63;;;9.70;;
32824;SDS011;51060;42.640;24.356;2024-01-30T05:21:40;9.47;;;5.67;;
32824;SDS011;51060;42.640;24.356;2024-01-30T05:24:06;26.27;;;16.50;;
32824;SDS011;51060;42.640;24.356;2024-01-30T05:26:32;8.13;;;5.90;;
32824;SDS011;51060;42.640;24.356;2024-01-30T05:28:58;6.37;;;4.47;;
32824;SDS011;51060;42.640;24.356;2024-01-30T05:31:23;5.03;;;3.77;;
32824;SDS011;51060;42.640;24.356;2024-01-30T05:33:51;5.17;;;4.40;;
32824;SDS011;51060;42.640;24.356;2024-01-30T05:36:16;4.17;;;3.50;;
32824;SDS011;51060;42.640;24.356;2024-01-30T05:38:42;5.63;;;3.90;;
32824;SDS011;51060;42.640;24.356;2024-01-30T05:41:08;5.60;;;4.37;;
32824;SDS011;51060;42.640;24.356;2024-01-30T05:43:34;3.57;;;3.13;;
32824;SDS011;51060;42.640;24.356;2024-01-30T05:46:00;6.20;;;5.20;;
32824;SDS011;51060;42.640;24.356;2024-01-30T05:48:28;5.13;;;4.17;;
32824;SDS011;51060;42.640;24.356;2024-01-30T05:50:54;3.73;;;3.10;;
32824;SDS011;51060;42.640;24.356;2024-01-30T05:53:19;6.03;;;4.40;;
32824;SDS011;51060;42.640;24.356;2024-01-30T05:55:45;73.33;;;44.07;;
32824;SDS011;51060;42.640;24.356;2024-01-30T05:58:11;17.40;;;11.93;;
32824;SDS011;51060;42.640;24.356;2024-01-30T06:00:36;5.60;;;4.70;;
32824;SDS011;51060;42.640;24.356;2024-01-30T06:03:02;4.13;;;3.40;;
32824;SDS011;51060;42.640;24.356;2024-01-30T06:05:28;12.30;;;9.50;;
32824;SDS011;51060;42.640;24.356;2024-01-30T06:07:57;9.43;;;6.63;;
32824;SDS011;51060;42.640;24.356;2024-01-30T06:10:22;5.70;;;3.63;;
32824;SDS011;51060;42.640;24.356;2024-01-30T06:12:48;3.77;;;3.23;;
32824;SDS011;51060;42.640;24.356;2024-01-30T06:15:14;4.40;;;3.20;;
32824;SDS011;51060;42.640;24.356;2024-01-30T06:17:40;5.83;;;3.33;;
32824;SDS011;51060;42.640;24.356;2024-01-30T06:20:06;4.90;;;3.20;;
32824;SDS011;51060;42.640;24.356;2024-01-30T06:22:32;4.20;;;3.37;;
32824;SDS011;51060;42.640;24.356;2024-01-30T06:24:57;3.50;;;3.20;;
32824;SDS011;51060;42.640;24.356;2024-01-30T06:27:23;5.23;;;3.43;;
32824;SDS011;51060;42.640;24.356;2024-01-30T06:29:51;4.53;;;3.63;;
32824;SDS011;51060;42.640;24.356;2024-01-30T06:32:17;5.60;;;3.27;;
32824;SDS011;51060;42.640;24.356;2024-01-30T06:34:42;4.50;;;3.60;;
32824;SDS011;51060;42.640;24.356;2024-01-30T06:37:09;6.53;;;5.10;;
32824;SDS011;51060;42.640;24.356;2024-01-30T06:39:35;8.80;;;6.50;;
32824;SDS011;51060;42.640;24.356;2024-01-30T06:42:01;11.17;;;7.77;;
32824;SDS011;51060;42.640;24.356;2024-01-30T06:44:27;6.50;;;4.53;;
32824;SDS011;51060;42.640;24.356;2024-01-30T06:46:53;6.70;;;4.40;;
32824;SDS011;51060;42.640;24.356;2024-01-30T06:49:19;5.73;;;4.07;;
32824;SDS011;51060;42.640;24.356;2024-01-30T06:51:47;6.97;;;5.30;;
32824;SDS011;51060;42.640;24.356;2024-01-30T06:54:13;5.13;;;3.47;;
32824;SDS011;51060;42.640;24.356;2024-01-30T06:56:39;17.60;;;10.97;;
32824;SDS011;51060;42.640;24.356;2024-01-30T06:59:04;33.07;;;20.97;;
32824;SDS011;51060;42.640;24.356;2024-01-30T07:01:30;23.00;;;14.13;;
32824;SDS011;51060;42.640;24.356;2024-01-30T07:03:56;16.90;;;11.00;;
32824;SDS011;51060;42.640;24.356;2024-01-30T07:06:22;18.10;;;12.00;;
32824;SDS011;51060;42.640;24.356;2024-01-30T07:08:51;13.77;;;9.47;;
32824;SDS011;51060;42.640;24.356;2024-01-30T07:11:20;7.13;;;3.73;;
32824;SDS011;51060;42.640;24.356;2024-01-30T07:13:52;4.57;;;3.47;;
32824;SDS011;51060;42.640;24.356;2024-01-30T07:16:18;6.90;;;4.70;;
32824;SDS011;51060;42.640;24.356;2024-01-30T07:18:43;8.03;;;5.23;;
32824;SDS011;51060;42.640;24.356;2024-01-30T07:21:10;7.23;;;4.97;;
32824;SDS011;51060;42.640;24.356;2024-01-30T07:23:35;17.13;;;11.63;;
32824;SDS011;51060;42.640;24.356;2024-01-30T07:26:07;25.90;;;12.97;;
32824;SDS011;51060;42.640;24.356;2024-01-30T07:28:34;6.90;;;5.53;;
32824;SDS011;51060;42.640;24.356;2024-01-30T07:31:00;7.00;;;4.43;;
32824;SDS011;51060;42.640;24.356;2024-01-30T07:33:26;5.93;;;4.30;;
32824;SDS011;51060;42.640;24.356;2024-01-30T07:35:52;5.30;;;3.93;;
32824;SDS011;51060;42.640;24.356;2024-01-30T07:38:18;8.00;;;5.50;;
32824;SDS011;51060;42.640;24.356;2024-01-30T07:40:44;18.40;;;12.73;;
32824;SDS011;51060;42.640;24.356;2024-01-30T07:43:10;10.83;;;7.80;;
32824;SDS011;51060;42.640;24.356;2024-01-30T07:45:36;9.57;;;7.27;;
32824;SDS011;51060;42.640;24.356;2024-01-30T07:48:04;23.47;;;13.27;;
32824;SDS011;51060;42.640;24.356;2024-01-30T07:50:30;19.20;;;12.33;;
32824;SDS011;51060;42.640;24.356;2024-01-30T07:52:59;23.00;;;14.37;;
